sensor_id;sensor_type;location;lat;lon;timestamp;P1;durP1;ratioP1;P2;durP2;ratioP2
31182;SDS011;17813;0.000;0.000;2023-07-16T00:02:11;4.50;;;3.30;;
31182;SDS011;17813;0.000;0.000;2023-07-16T00:04:39;4.93;;;3.30;;
31182;SDS011;17813;0.000;0.000;2023-07-16T00:07:07;3.63;;;3.22;;
31182;SDS011;17813;0.000;0.000;2023-07-16T00:09:39;3.43;;;3.07;;
31182;SDS011;17813;0.000;0.000;2023-07-16T00:12:10;6.93;;;3.43;;
31182;SDS011;17813;0.000;0.000;2023-07-16T00:14:38;8.53;;;3.23;;
31182;SDS011;17813;0.000;0.000;2023-07-16T00:17:12;4.65;;;3.13;;
31182;SDS011;17813;0.000;0.000;2023-07-16T00:19:41;4.20;;;3.40;;
31182;SDS011;17813;0.000;0.000;2023-07-16T00:22:12;4.77;;;3.10;;
31182;SDS011;17813;0.000;0.000;2023-07-16T00:24:40;3.40;;;3.00;;
31182;SDS011;17813;0.000;0.000;2023-07-16T00:27:08;3.83;;;3.20;;
31182;SDS011;17813;0.000;0.000;2023-07-16T00:29:36;3.80;;;3.40;;
31182;SDS011;17813;0.000;0.000;2023-07-16T00:32:04;3.50;;;3.20;;
31182;SDS011;17813;0.000;0.000;2023-07-16T00:34:33;3.97;;;3.08;;
31182;SDS011;17813;0.000;0.000;2023-07-16T00:37:01;4.50;;;3.20;;
31182;SDS011;17813;0.000;0.000;2023-07-16T00:39:29;3.67;;;3.13;;
31182;SDS011;17813;0.000;0.000;2023-07-16T00:42:03;3.40;;;3.10;;
31182;SDS011;17813;0.000;0.000;2023-07-16T00:44:31;3.80;;;3.17;;
31182;SDS011;17813;0.000;0.000;2023-07-16T00:47:00;3.30;;;3.00;;
31182;SDS011;17813;0.000;0.000;2023-07-16T00:49:28;3.83;;;3.10;;
31182;SDS011;17813;0.000;0.000;2023-07-16T00:51:58;3.30;;;3.00;;
31182;SDS011;17813;0.000;0.000;2023-07-16T00:54:28;4.88;;;3.25;;
31182;SDS011;17813;0.000;0.000;2023-07-16T00:56:57;4.17;;;3.40;;
31182;SDS011;17813;0.000;0.000;2023-07-16T00:59:29;4.07;;;3.50;;
31182;SDS011;17813;0.000;0.000;2023-07-16T01:01:57;4.32;;;3.38;;
31182;SDS011;17813;0.000;0.000;2023-07-16T01:04:25;4.33;;;3.40;;
31182;SDS011;17813;0.000;0.000;2023-07-16T01:06:55;6.70;;;3.43;;
31182;SDS011;17813;0.000;0.000;2023-07-16T01:09:47;5.37;;;3.73;;
31182;SDS011;17813;0.000;0.000;2023-07-16T01:12:20;5.20;;;3.77;;
31182;SDS011;17813;0.000;0.000;2023-07-16T01:14:49;4.87;;;4.00;;
31182;SDS011;17813;0.000;0.000;2023-07-16T01:17:19;6.13;;;4.50;;
31182;SDS011;17813;0.000;0.000;2023-07-16T01:19:51;5.50;;;3.80;;
31182;SDS011;17813;0.000;0.000;2023-07-16T01:30:59;4.33;;;3.73;;
31182;SDS011;17813;0.000;0.000;2023-07-16T01:33:28;6.40;;;4.33;;
31182;SDS011;17813;0.000;0.000;2023-07-16T01:35:59;4.73;;;4.30;;
31182;SDS011;17813;0.000;0.000;2023-07-16T01:38:31;5.67;;;4.53;;
31182;SDS011;17813;0.000;0.000;2023-07-16T01:41:16;6.20;;;4.23;;
31182;SDS011;17813;0.000;0.000;2023-07-16T01:43:44;4.60;;;4.10;;
31182;SDS011;17813;0.000;0.000;2023-07-16T01:46:14;4.13;;;3.73;;
31182;SDS011;17813;0.000;0.000;2023-07-16T01:48:42;4.28;;;3.88;;
31182;SDS011;17813;0.000;0.000;2023-07-16T01:51:10;4.70;;;3.40;;
31182;SDS011;17813;0.000;0.000;2023-07-16T01:53:40;3.80;;;3.50;;
31182;SDS011;17813;0.000;0.000;2023-07-16T01:56:10;4.90;;;3.60;;
31182;SDS011;17813;0.000;0.000;2023-07-16T01:58:38;3.53;;;3.17;;
31182;SDS011;17813;0.000;0.000;2023-07-16T02:01:06;3.63;;;3.30;;
31182;SDS011;17813;0.000;0.000;2023-07-16T02:03:34;5.10;;;4.60;;
31182;SDS011;17813;0.000;0.000;2023-07-16T02:06:03;6.50;;;5.70;;
31182;SDS011;17813;0.000;0.000;2023-07-16T02:08:31;8.07;;;6.10;;
31182;SDS011;17813;0.000;0.000;2023-07-16T02:10:58;7.17;;;5.83;;
31182;SDS011;17813;0.000;0.000;2023-07-16T02:13:26;5.37;;;4.87;;
31182;SDS011;17813;0.000;0.000;2023-07-16T02:15:54;5.47;;;4.97;;
31182;SDS011;17813;0.000;0.000;2023-07-16T02:18:22;4.80;;;4.40;;
31182;SDS011;17813;0.000;0.000;2023-07-16T02:20:49;3.80;;;3.50;;
31182;SDS011;17813;0.000;0.000;2023-07-16T02:23:17;4.23;;;3.60;;
31182;SDS011;17813;0.000;0.000;2023-07-16T02:25:43;3.40;;;3.10;;
31182;SDS011;17813;0.000;0.000;2023-07-16T02:28:11;3.97;;;2.93;;
31182;SDS011;17813;0.000;0.000;2023-07-16T02:30:40;2.90;;;2.70;;
31182;SDS011;17813;0.000;0.000;2023-07-16T02:33:08;3.17;;;2.80;;
31182;SDS011;17813;0.000;0.000;2023-07-16T02:35:34;3.20;;;2.90;;
31182;SDS011;17813;0.000;0.000;2023-07-16T02:38:04;2.90;;;2.70;;
31182;SDS011;17813;0.000;0.000;2023-07-16T02:40:32;2.70;;;2.50;;
31182;SDS011;17813;0.000;0.000;2023-07-16T02:42:59;3.17;;;2.87;;
31182;SDS011;17813;0.000;0.000;2023-07-16T02:45:26;3.83;;;3.40;;
31182;SDS011;17813;0.000;0.000;2023-07-16T02:47:53;4.70;;;4.20;;
31182;SDS011;17813;0.000;0.000;2023-07-16T02:50:21;4.57;;;4.17;;
31182;SDS011;17813;0.000;0.000;2023-07-16T02:52:49;4.47;;;3.97;;
31182;SDS011;17813;0.000;0.000;2023-07-16T02:55:16;4.07;;;3.67;;
31182;SDS011;17813;0.000;0.000;2023-07-16T02:57:46;3.70;;;3.37;;
31182;SDS011;17813;0.000;0.000;2023-07-16T03:00:16;4.37;;;3.80;;
31182;SDS011;17813;0.000;0.000;2023-07-16T03:02:43;5.10;;;4.60;;
31182;SDS011;17813;0.000;0.000;2023-07-16T03:05:13;5.17;;;4.67;;
31182;SDS011;17813;0.000;0.000;2023-07-16T03:07:43;5.77;;;4.87;;
31182;SDS011;17813;0.000;0.000;2023-07-16T03:10:10;5.93;;;4.33;;
31182;SDS011;17813;0.000;0.000;2023-07-16T03:12:37;5.10;;;2.77;;
31182;SDS011;17813;0.000;0.000;2023-07-16T03:15:03;3.03;;;2.23;;
31182;SDS011;17813;0.000;0.000;2023-07-16T03:17:31;3.73;;;2.60;;
31182;SDS011;17813;0.000;0.000;2023-07-16T03:19:57;2.93;;;2.30;;
31182;SDS011;17813;0.000;0.000;2023-07-16T03:22:24;2.90;;;2.70;;
31182;SDS011;17813;0.000;0.000;2023-07-16T03:24:51;3.20;;;2.47;;
31182;SDS011;17813;0.000;0.000;2023-07-16T03:27:18;2.60;;;2.37;;
31182;SDS011;17813;0.000;0.000;2023-07-16T03:29:45;2.87;;;2.50;;
31182;SDS011;17813;0.000;0.000;2023-07-16T03:32:12;3.50;;;2.70;;
31182;SDS011;17813;0.000;0.000;2023-07-16T03:34:39;3.83;;;3.00;;
31182;SDS011;17813;0.000;0.000;2023-07-16T03:37:06;5.43;;;3.90;;
31182;SDS011;17813;0.000;0.000;2023-07-16T03:39:33;4.57;;;3.57;;
31182;SDS011;17813;0.000;0.000;2023-07-16T03:41:59;3.23;;;2.93;;
31182;SDS011;17813;0.000;0.000;2023-07-16T03:44:26;3.77;;;2.67;;
31182;SDS011;17813;0.000;0.000;2023-07-16T03:47:00;3.93;;;2.60;;
31182;SDS011;17813;0.000;0.000;2023-07-16T03:49:27;4.77;;;2.60;;
31182;SDS011;17813;0.000;0.000;2023-07-16T03:51:56;2.43;;;2.23;;
31182;SDS011;17813;0.000;0.000;2023-07-16T03:54:23;3.13;;;2.30;;
31182;SDS011;17813;0.000;0.000;2023-07-16T03:56:50;2.40;;;2.20;;
31182;SDS011;17813;0.000;0.000;2023-07-16T03:59:17;3.93;;;2.50;;
31182;SDS011;17813;0.000;0.000;2023-07-16T04:01:44;2.47;;;2.27;;
31182;SDS011;17813;0.000;0.000;2023-07-16T04:04:13;2.40;;;2.20;;
31182;SDS011;17813;0.000;0.000;2023-07-16T04:06:41;3.37;;;2.20;;
31182;SDS011;17813;0.000;0.000;2023-07-16T04:09:08;3.10;;;2.20;;
31182;SDS011;17813;0.000;0.000;2023-07-16T04:11:35;2.20;;;1.97;;
31182;SDS011;17813;0.000;0.000;2023-07-16T04:14:02;2.40;;;2.10;;
31182;SDS011;17813;0.000;0.000;2023-07-16T04:16:29;2.20;;;2.00;;
31182;SDS011;17813;0.000;0.000;2023-07-16T04:18:56;2.80;;;2.17;;
31182;SDS011;17813;0.000;0.000;2023-07-16T04:21:22;2.53;;;2.20;;
31182;SDS011;17813;0.000;0.000;2023-07-16T04:23:50;2.40;;;2.20;;
31182;SDS011;17813;0.000;0.000;2023-07-16T04:26:17;2.93;;;2.30;;
31182;SDS011;17813;0.000;0.000;2023-07-16T04:28:44;2.50;;;2.30;;
31182;SDS011;17813;0.000;0.000;2023-07-16T04:31:11;2.53;;;2.33;;
31182;SDS011;17813;0.000;0.000;2023-07-16T04:33:38;2.33;;;2.13;;
31182;SDS011;17813;0.000;0.000;2023-07-16T04:36:04;2.40;;;2.20;;
31182;SDS011;17813;0.000;0.000;2023-07-16T04:38:31;2.27;;;2.07;;
31182;SDS011;17813;0.000;0.000;2023-07-16T04:40:59;4.70;;;2.40;;
31182;SDS011;17813;0.000;0.000;2023-07-16T04:43:27;3.70;;;2.30;;
31182;SDS011;17813;0.000;0.000;2023-07-16T04:45:54;2.50;;;2.20;;
31182;SDS011;17813;0.000;0.000;2023-07-16T04:48:21;2.23;;;2.13;;
31182;SDS011;17813;0.000;0.000;2023-07-16T04:51:04;2.43;;;2.10;;
31182;SDS011;17813;0.000;0.000;2023-07-16T04:53:30;2.60;;;2.40;;
31182;SDS011;17813;0.000;0.000;2023-07-16T04:56:13;3.10;;;2.00;;
31182;SDS011;17813;0.000;0.000;2023-07-16T04:58:41;4.20;;;2.30;;
31182;SDS011;17813;0.000;0.000;2023-07-16T05:01:11;2.30;;;2.10;;
31182;SDS011;17813;0.000;0.000;2023-07-16T05:03:38;2.38;;;2.17;;
31182;SDS011;17813;0.000;0.000;2023-07-16T05:06:05;2.30;;;2.10;;
31182;SDS011;17813;0.000;0.000;2023-07-16T05:08:32;2.17;;;2.00;;
31182;SDS011;17813;0.000;0.000;2023-07-16T05:10:59;3.30;;;2.00;;
31182;SDS011;17813;0.000;0.000;2023-07-16T05:13:27;3.50;;;2.38;;
31182;SDS011;17813;0.000;0.000;2023-07-16T05:15:53;4.03;;;2.25;;
31182;SDS011;17813;0.000;0.000;2023-07-16T05:18:20;3.15;;;2.28;;
31182;SDS011;17813;0.000;0.000;2023-07-16T05:20:48;3.08;;;2.03;;
31182;SDS011;17813;0.000;0.000;2023-07-16T05:23:15;3.33;;;2.00;;
31182;SDS011;17813;0.000;0.000;2023-07-16T05:25:45;2.78;;;1.90;;
31182;SDS011;17813;0.000;0.000;2023-07-16T05:28:13;2.47;;;2.10;;
31182;SDS011;17813;0.000;0.000;2023-07-16T05:30:41;2.60;;;2.00;;
31182;SDS011;17813;0.000;0.000;2023-07-16T05:33:08;2.83;;;2.08;;
31182;SDS011;17813;0.000;0.000;2023-07-16T05:35:36;2.95;;;1.98;;
31182;SDS011;17813;0.000;0.000;2023-07-16T05:38:04;4.22;;;1.85;;
31182;SDS011;17813;0.000;0.000;2023-07-16T05:40:35;2.70;;;1.80;;
31182;SDS011;17813;0.000;0.000;2023-07-16T05:43:01;1.73;;;1.63;;
31182;SDS011;17813;0.000;0.000;2023-07-16T05:45:30;2.13;;;1.75;;
31182;SDS011;17813;0.000;0.000;2023-07-16T05:47:56;2.45;;;1.50;;
31182;SDS011;17813;0.000;0.000;2023-07-16T05:50:23;3.55;;;1.65;;
31182;SDS011;17813;0.000;0.000;2023-07-16T05:52:50;1.55;;;1.45;;
31182;SDS011;17813;0.000;0.000;2023-07-16T05:55:17;3.15;;;1.40;;
31182;SDS011;17813;0.000;0.000;2023-07-16T05:57:45;1.70;;;1.50;;
31182;SDS011;17813;0.000;0.000;2023-07-16T06:00:12;3.00;;;1.55;;
31182;SDS011;17813;0.000;0.000;2023-07-16T06:02:39;1.60;;;1.38;;
31182;SDS011;17813;0.000;0.000;2023-07-16T06:05:06;1.60;;;1.50;;
31182;SDS011;17813;0.000;0.000;2023-07-16T06:07:33;1.30;;;1.20;;
31182;SDS011;17813;0.000;0.000;2023-07-16T06:10:02;1.50;;;1.40;;
31182;SDS011;17813;0.000;0.000;2023-07-16T06:12:29;1.63;;;1.30;;
31182;SDS011;17813;0.000;0.000;2023-07-16T06:14:55;2.17;;;1.50;;
31182;SDS011;17813;0.000;0.000;2023-07-16T06:17:22;1.83;;;1.40;;
31182;SDS011;17813;0.000;0.000;2023-07-16T06:19:49;3.47;;;1.50;;
31182;SDS011;17813;0.000;0.000;2023-07-16T06:22:17;1.63;;;1.45;;
31182;SDS011;17813;0.000;0.000;2023-07-16T06:24:44;2.10;;;1.30;;
31182;SDS011;17813;0.000;0.000;2023-07-16T06:27:11;1.67;;;1.50;;
31182;SDS011;17813;0.000;0.000;2023-07-16T06:29:38;1.50;;;1.40;;
31182;SDS011;17813;0.000;0.000;2023-07-16T06:32:05;1.40;;;1.25;;
31182;SDS011;17813;0.000;0.000;2023-07-16T06:34:34;2.45;;;1.63;;
31182;SDS011;17813;0.000;0.000;2023-07-16T06:37:01;1.50;;;1.40;;
31182;SDS011;17813;0.000;0.000;2023-07-16T06:39:28;1.67;;;1.30;;
31182;SDS011;17813;0.000;0.000;2023-07-16T06:41:55;2.42;;;1.60;;
31182;SDS011;17813;0.000;0.000;2023-07-16T06:44:22;1.95;;;1.52;;
31182;SDS011;17813;0.000;0.000;2023-07-16T06:46:49;2.15;;;1.23;;
31182;SDS011;17813;0.000;0.000;2023-07-16T06:49:16;2.28;;;1.63;;
31182;SDS011;17813;0.000;0.000;2023-07-16T06:51:43;1.40;;;1.30;;
31182;SDS011;17813;0.000;0.000;2023-07-16T06:54:10;2.97;;;1.40;;
31182;SDS011;17813;0.000;0.000;2023-07-16T06:56:36;1.75;;;1.40;;
31182;SDS011;17813;0.000;0.000;2023-07-16T06:59:03;1.98;;;1.50;;
31182;SDS011;17813;0.000;0.000;2023-07-16T07:01:31;1.95;;;1.48;;
31182;SDS011;17813;0.000;0.000;2023-07-16T07:04:00;1.98;;;1.42;;
31182;SDS011;17813;0.000;0.000;2023-07-16T07:06:27;1.60;;;1.50;;
31182;SDS011;17813;0.000;0.000;2023-07-16T07:08:56;4.45;;;1.63;;
31182;SDS011;17813;0.000;0.000;2023-07-16T07:11:24;2.22;;;1.50;;
31182;SDS011;17813;0.000;0.000;2023-07-16T07:13:52;2.00;;;1.45;;
31182;SDS011;17813;0.000;0.000;2023-07-16T07:16:19;2.30;;;1.60;;
31182;SDS011;17813;0.000;0.000;2023-07-16T07:18:46;1.58;;;1.40;;
31182;SDS011;17813;0.000;0.000;2023-07-16T07:21:13;3.05;;;1.60;;
31182;SDS011;17813;0.000;0.000;2023-07-16T07:23:40;1.70;;;1.60;;
31182;SDS011;17813;0.000;0.000;2023-07-16T07:26:10;1.80;;;1.30;;
31182;SDS011;17813;0.000;0.000;2023-07-16T07:28:38;2.72;;;1.50;;
31182;SDS011;17813;0.000;0.000;2023-07-16T07:31:04;2.63;;;1.70;;
31182;SDS011;17813;0.000;0.000;2023-07-16T07:33:31;2.13;;;1.25;;
31182;SDS011;17813;0.000;0.000;2023-07-16T07:35:58;2.10;;;1.50;;
31182;SDS011;17813;0.000;0.000;2023-07-16T07:38:25;2.72;;;1.80;;
31182;SDS011;17813;0.000;0.000;2023-07-16T07:40:52;1.77;;;1.67;;
31182;SDS011;17813;0.000;0.000;2023-07-16T07:43:27;2.00;;;1.63;;
31182;SDS011;17813;0.000;0.000;2023-07-16T07:45:54;1.70;;;1.60;;
31182;SDS011;17813;0.000;0.000;2023-07-16T07:48:21;4.32;;;1.60;;
31182;SDS011;17813;0.000;0.000;2023-07-16T07:50:48;2.35;;;1.60;;
31182;SDS011;17813;0.000;0.000;2023-07-16T07:53:18;1.85;;;1.42;;
31182;SDS011;17813;0.000;0.000;2023-07-16T07:55:48;1.85;;;1.48;;
31182;SDS011;17813;0.000;0.000;2023-07-16T07:58:15;2.30;;;1.70;;
31182;SDS011;17813;0.000;0.000;2023-07-16T08:00:42;3.28;;;1.73;;
31182;SDS011;17813;0.000;0.000;2023-07-16T08:03:09;2.45;;;1.50;;
31182;SDS011;17813;0.000;0.000;2023-07-16T08:05:36;1.95;;;1.60;;
31182;SDS011;17813;0.000;0.000;2023-07-16T08:08:03;2.00;;;1.60;;
31182;SDS011;17813;0.000;0.000;2023-07-16T08:10:29;2.53;;;1.55;;
31182;SDS011;17813;0.000;0.000;2023-07-16T08:12:56;2.65;;;1.50;;
31182;SDS011;17813;0.000;0.000;2023-07-16T08:15:23;1.92;;;1.50;;
31182;SDS011;17813;0.000;0.000;2023-07-16T08:17:50;2.33;;;1.52;;
31182;SDS011;17813;0.000;0.000;2023-07-16T08:20:17;2.50;;;1.60;;
31182;SDS011;17813;0.000;0.000;2023-07-16T08:22:44;3.80;;;1.65;;
31182;SDS011;17813;0.000;0.000;2023-07-16T08:25:12;4.13;;;1.60;;
31182;SDS011;17813;0.000;0.000;2023-07-16T08:27:41;1.83;;;1.50;;
31182;SDS011;17813;0.000;0.000;2023-07-16T08:30:08;2.33;;;1.55;;
31182;SDS011;17813;0.000;0.000;2023-07-16T08:32:35;2.55;;;1.52;;
31182;SDS011;17813;0.000;0.000;2023-07-16T08:35:02;2.65;;;1.60;;
31182;SDS011;17813;0.000;0.000;2023-07-16T08:37:29;2.33;;;1.30;;
31182;SDS011;17813;0.000;0.000;2023-07-16T08:39:56;3.45;;;1.70;;
31182;SDS011;17813;0.000;0.000;2023-07-16T08:42:23;2.67;;;1.80;;
31182;SDS011;17813;0.000;0.000;2023-07-16T08:44:50;1.85;;;1.50;;
31182;SDS011;17813;0.000;0.000;2023-07-16T08:47:19;2.25;;;1.67;;
31182;SDS011;17813;0.000;0.000;2023-07-16T08:49:56;3.42;;;1.58;;
31182;SDS011;17813;0.000;0.000;2023-07-16T08:52:24;4.00;;;1.75;;
31182;SDS011;17813;0.000;0.000;2023-07-16T08:54:53;2.28;;;1.58;;
31182;SDS011;17813;0.000;0.000;2023-07-16T08:57:22;3.28;;;1.52;;
31182;SDS011;17813;0.000;0.000;2023-07-16T08:59:53;2.25;;;1.60;;
31182;SDS011;17813;0.000;0.000;2023-07-16T09:02:23;2.45;;;1.80;;
31182;SDS011;17813;0.000;0.000;2023-07-16T09:04:51;2.60;;;1.70;;
31182;SDS011;17813;0.000;0.000;2023-07-16T09:07:18;2.20;;;1.60;;
31182;SDS011;17813;0.000;0.000;2023-07-16T09:09:54;2.78;;;1.60;;
31182;SDS011;17813;0.000;0.000;2023-07-16T09:12:25;1.92;;;1.30;;
31182;SDS011;17813;0.000;0.000;2023-07-16T09:14:53;1.98;;;1.63;;
31182;SDS011;17813;0.000;0.000;2023-07-16T09:17:21;1.98;;;1.52;;
31182;SDS011;17813;0.000;0.000;2023-07-16T09:19:51;2.35;;;1.50;;
31182;SDS011;17813;0.000;0.000;2023-07-16T09:22:19;2.03;;;1.60;;
31182;SDS011;17813;0.000;0.000;2023-07-16T09:24:46;2.72;;;1.80;;
31182;SDS011;17813;0.000;0.000;2023-07-16T09:27:13;3.70;;;1.85;;
31182;SDS011;17813;0.000;0.000;2023-07-16T09:29:41;2.53;;;1.90;;
31182;SDS011;17813;0.000;0.000;2023-07-16T09:32:08;2.80;;;1.60;;
31182;SDS011;17813;0.000;0.000;2023-07-16T09:34:35;2.45;;;1.83;;
31182;SDS011;17813;0.000;0.000;2023-07-16T09:37:03;2.35;;;1.60;;
31182;SDS011;17813;0.000;0.000;2023-07-16T09:39:32;2.15;;;1.60;;
31182;SDS011;17813;0.000;0.000;2023-07-16T09:42:02;2.95;;;1.50;;
31182;SDS011;17813;0.000;0.000;2023-07-16T09:44:32;1.95;;;1.45;;
31182;SDS011;17813;0.000;0.000;2023-07-16T09:46:59;2.35;;;1.63;;
31182;SDS011;17813;0.000;0.000;2023-07-16T09:49:33;3.55;;;1.70;;
31182;SDS011;17813;0.000;0.000;2023-07-16T09:52:01;2.35;;;1.67;;
31182;SDS011;17813;0.000;0.000;2023-07-16T09:54:30;2.30;;;1.60;;
31182;SDS011;17813;0.000;0.000;2023-07-16T09:56:59;2.53;;;1.85;;
31182;SDS011;17813;0.000;0.000;2023-07-16T09:59:29;1.70;;;1.40;;
31182;SDS011;17813;0.000;0.000;2023-07-16T10:01:58;2.03;;;1.70;;
31182;SDS011;17813;0.000;0.000;2023-07-16T10:04:38;3.17;;;1.60;;
31182;SDS011;17813;0.000;0.000;2023-07-16T10:07:19;1.88;;;1.50;;
31182;SDS011;17813;0.000;0.000;2023-07-16T10:09:56;2.85;;;1.60;;
31182;SDS011;17813;0.000;0.000;2023-07-16T10:12:24;2.67;;;1.58;;
31182;SDS011;17813;0.000;0.000;2023-07-16T10:14:55;2.15;;;1.70;;
31182;SDS011;17813;0.000;0.000;2023-07-16T10:17:26;3.80;;;2.08;;
31182;SDS011;17813;0.000;0.000;2023-07-16T10:20:29;3.35;;;1.90;;
31182;SDS011;17813;0.000;0.000;2023-07-16T10:23:11;2.65;;;1.75;;
31182;SDS011;17813;0.000;0.000;2023-07-16T10:25:39;1.90;;;1.70;;
31182;SDS011;17813;0.000;0.000;2023-07-16T10:28:26;2.55;;;2.00;;
31182;SDS011;17813;0.000;0.000;2023-07-16T10:30:53;3.90;;;1.88;;
31182;SDS011;17813;0.000;0.000;2023-07-16T10:33:19;3.75;;;2.08;;
31182;SDS011;17813;0.000;0.000;2023-07-16T10:35:47;3.30;;;1.77;;
31182;SDS011;17813;0.000;0.000;2023-07-16T10:38:14;5.00;;;1.73;;
31182;SDS011;17813;0.000;0.000;2023-07-16T10:40:43;2.42;;;1.80;;
31182;SDS011;17813;0.000;0.000;2023-07-16T10:43:11;2.30;;;1.88;;
31182;SDS011;17813;0.000;0.000;2023-07-16T10:45:38;2.45;;;1.63;;
31182;SDS011;17813;0.000;0.000;2023-07-16T10:48:05;3.10;;;1.88;;
31182;SDS011;17813;0.000;0.000;2023-07-16T10:50:32;5.50;;;2.10;;
31182;SDS011;17813;0.000;0.000;2023-07-16T10:53:00;2.63;;;1.88;;
31182;SDS011;17813;0.000;0.000;2023-07-16T10:55:28;3.63;;;2.05;;
31182;SDS011;17813;0.000;0.000;2023-07-16T10:57:57;3.20;;;2.05;;
31182;SDS011;17813;0.000;0.000;2023-07-16T11:00:24;2.53;;;2.00;;
31182;SDS011;17813;0.000;0.000;2023-07-16T11:02:54;3.05;;;2.05;;
31182;SDS011;17813;0.000;0.000;2023-07-16T11:05:21;2.70;;;1.90;;
31182;SDS011;17813;0.000;0.000;2023-07-16T11:07:48;2.47;;;1.60;;
31182;SDS011;17813;0.000;0.000;2023-07-16T11:10:18;2.15;;;1.95;;
31182;SDS011;17813;0.000;0.000;2023-07-16T11:12:51;2.72;;;1.90;;
31182;SDS011;17813;0.000;0.000;2023-07-16T11:15:18;3.97;;;2.00;;
31182;SDS011;17813;0.000;0.000;2023-07-16T11:18:00;2.40;;;1.85;;
31182;SDS011;17813;0.000;0.000;2023-07-16T11:20:28;2.80;;;2.00;;
31182;SDS011;17813;0.000;0.000;2023-07-16T11:22:57;2.92;;;2.10;;
31182;SDS011;17813;0.000;0.000;2023-07-16T11:25:27;6.78;;;1.88;;
31182;SDS011;17813;0.000;0.000;2023-07-16T11:27:55;2.15;;;1.58;;
31182;SDS011;17813;0.000;0.000;2023-07-16T11:30:25;3.05;;;1.73;;
31182;SDS011;17813;0.000;0.000;2023-07-16T11:32:57;3.58;;;1.85;;
31182;SDS011;17813;0.000;0.000;2023-07-16T11:35:24;2.35;;;1.88;;
31182;SDS011;17813;0.000;0.000;2023-07-16T11:37:52;3.92;;;1.80;;
31182;SDS011;17813;0.000;0.000;2023-07-16T11:40:20;4.10;;;1.90;;
31182;SDS011;17813;0.000;0.000;2023-07-16T11:42:47;2.70;;;1.77;;
31182;SDS011;17813;0.000;0.000;2023-07-16T11:45:18;2.92;;;1.90;;
31182;SDS011;17813;0.000;0.000;2023-07-16T11:47:51;3.17;;;1.90;;
31182;SDS011;17813;0.000;0.000;2023-07-16T11:50:18;2.72;;;1.73;;
31182;SDS011;17813;0.000;0.000;2023-07-16T11:52:55;3.05;;;1.60;;
31182;SDS011;17813;0.000;0.000;2023-07-16T11:55:24;3.08;;;2.00;;
31182;SDS011;17813;0.000;0.000;2023-07-16T11:57:52;2.40;;;1.88;;
31182;SDS011;17813;0.000;0.000;2023-07-16T12:00:19;3.17;;;1.70;;
31182;SDS011;17813;0.000;0.000;2023-07-16T12:02:47;2.35;;;1.80;;
31182;SDS011;17813;0.000;0.000;2023-07-16T12:05:17;2.70;;;1.70;;
31182;SDS011;17813;0.000;0.000;2023-07-16T12:07:45;2.40;;;1.73;;
31182;SDS011;17813;0.000;0.000;2023-07-16T12:10:12;2.28;;;1.77;;
31182;SDS011;17813;0.000;0.000;2023-07-16T12:12:39;2.80;;;1.90;;
31182;SDS011;17813;0.000;0.000;2023-07-16T12:15:10;2.95;;;1.95;;
31182;SDS011;17813;0.000;0.000;2023-07-16T12:17:39;2.58;;;1.90;;
31182;SDS011;17813;0.000;0.000;2023-07-16T12:20:06;5.35;;;1.90;;
31182;SDS011;17813;0.000;0.000;2023-07-16T12:22:33;2.03;;;1.80;;
31182;SDS011;17813;0.000;0.000;2023-07-16T12:25:03;2.90;;;1.88;;
31182;SDS011;17813;0.000;0.000;2023-07-16T12:27:33;2.60;;;1.88;;
31182;SDS011;17813;0.000;0.000;2023-07-16T12:30:00;2.45;;;1.75;;
31182;SDS011;17813;0.000;0.000;2023-07-16T12:32:28;2.08;;;1.70;;
31182;SDS011;17813;0.000;0.000;2023-07-16T12:34:55;2.20;;;2.00;;
31182;SDS011;17813;0.000;0.000;2023-07-16T12:37:24;2.35;;;2.00;;
31182;SDS011;17813;0.000;0.000;2023-07-16T12:39:50;2.83;;;2.10;;
31182;SDS011;17813;0.000;0.000;2023-07-16T12:42:17;2.88;;;2.00;;
31182;SDS011;17813;0.000;0.000;2023-07-16T12:44:44;3.53;;;1.88;;
31182;SDS011;17813;0.000;0.000;2023-07-16T12:47:11;2.47;;;1.83;;
31182;SDS011;17813;0.000;0.000;2023-07-16T12:49:38;2.30;;;2.08;;
31182;SDS011;17813;0.000;0.000;2023-07-16T12:52:06;3.42;;;1.95;;
31182;SDS011;17813;0.000;0.000;2023-07-16T12:54:33;3.33;;;2.00;;
31182;SDS011;17813;0.000;0.000;2023-07-16T12:57:00;2.72;;;2.05;;
31182;SDS011;17813;0.000;0.000;2023-07-16T12:59:28;3.85;;;1.90;;
31182;SDS011;17813;0.000;0.000;2023-07-16T13:01:55;3.00;;;1.90;;
31182;SDS011;17813;0.000;0.000;2023-07-16T13:04:22;2.65;;;1.90;;
31182;SDS011;17813;0.000;0.000;2023-07-16T13:06:49;3.15;;;2.00;;
31182;SDS011;17813;0.000;0.000;2023-07-16T13:09:17;2.75;;;1.92;;
31182;SDS011;17813;0.000;0.000;2023-07-16T13:11:45;2.92;;;1.85;;
31182;SDS011;17813;0.000;0.000;2023-07-16T13:14:12;3.33;;;2.13;;
31182;SDS011;17813;0.000;0.000;2023-07-16T13:16:40;2.63;;;2.20;;
31182;SDS011;17813;0.000;0.000;2023-07-16T13:19:08;4.82;;;2.38;;
31182;SDS011;17813;0.000;0.000;2023-07-16T13:21:36;2.90;;;2.30;;
31182;SDS011;17813;0.000;0.000;2023-07-16T13:24:04;4.40;;;2.17;;
31182;SDS011;17813;0.000;0.000;2023-07-16T13:26:32;2.75;;;2.40;;
31182;SDS011;17813;0.000;0.000;2023-07-16T13:28:59;3.95;;;2.25;;
31182;SDS011;17813;0.000;0.000;2023-07-16T13:31:27;4.35;;;2.40;;
31182;SDS011;17813;0.000;0.000;2023-07-16T13:33:54;3.92;;;2.20;;
31182;SDS011;17813;0.000;0.000;2023-07-16T13:36:23;3.97;;;2.10;;
31182;SDS011;17813;0.000;0.000;2023-07-16T13:38:50;3.47;;;2.28;;
31182;SDS011;17813;0.000;0.000;2023-07-16T13:41:17;3.42;;;2.00;;
31182;SDS011;17813;0.000;0.000;2023-07-16T13:43:46;3.15;;;2.33;;
31182;SDS011;17813;0.000;0.000;2023-07-16T13:46:13;4.15;;;2.25;;
31182;SDS011;17813;0.000;0.000;2023-07-16T13:48:40;2.35;;;2.10;;
31182;SDS011;17813;0.000;0.000;2023-07-16T13:51:08;3.78;;;2.40;;
31182;SDS011;17813;0.000;0.000;2023-07-16T13:53:35;2.78;;;2.20;;
31182;SDS011;17813;0.000;0.000;2023-07-16T13:56:02;3.20;;;2.33;;
31182;SDS011;17813;0.000;0.000;2023-07-16T13:58:29;2.80;;;2.50;;
31182;SDS011;17813;0.000;0.000;2023-07-16T14:00:55;5.70;;;2.40;;
31182;SDS011;17813;0.000;0.000;2023-07-16T14:03:23;3.50;;;2.10;;
31182;SDS011;17813;0.000;0.000;2023-07-16T14:05:49;2.75;;;2.22;;
31182;SDS011;17813;0.000;0.000;2023-07-16T14:08:17;5.93;;;2.10;;
31182;SDS011;17813;0.000;0.000;2023-07-16T14:10:44;3.08;;;2.35;;
31182;SDS011;17813;0.000;0.000;2023-07-16T14:13:12;3.22;;;2.38;;
31182;SDS011;17813;0.000;0.000;2023-07-16T14:15:41;3.22;;;2.35;;
31182;SDS011;17813;0.000;0.000;2023-07-16T14:18:09;4.18;;;2.40;;
31182;SDS011;17813;0.000;0.000;2023-07-16T14:20:36;4.63;;;2.50;;
31182;SDS011;17813;0.000;0.000;2023-07-16T14:23:06;3.13;;;2.30;;
31182;SDS011;17813;0.000;0.000;2023-07-16T14:25:34;3.10;;;2.45;;
31182;SDS011;17813;0.000;0.000;2023-07-16T14:28:01;3.83;;;2.30;;
31182;SDS011;17813;0.000;0.000;2023-07-16T14:30:28;4.22;;;2.40;;
31182;SDS011;17813;0.000;0.000;2023-07-16T14:32:55;4.15;;;2.33;;
31182;SDS011;17813;0.000;0.000;2023-07-16T14:35:23;3.38;;;2.58;;
31182;SDS011;17813;0.000;0.000;2023-07-16T14:37:52;3.53;;;2.50;;
31182;SDS011;17813;0.000;0.000;2023-07-16T14:40:19;3.58;;;2.45;;
31182;SDS011;17813;0.000;0.000;2023-07-16T14:42:47;5.57;;;2.85;;
31182;SDS011;17813;0.000;0.000;2023-07-16T14:45:14;5.22;;;2.70;;
31182;SDS011;17813;0.000;0.000;2023-07-16T14:47:44;3.13;;;2.55;;
31182;SDS011;17813;0.000;0.000;2023-07-16T14:50:11;2.88;;;2.45;;
31182;SDS011;17813;0.000;0.000;2023-07-16T14:52:38;3.50;;;2.58;;
31182;SDS011;17813;0.000;0.000;2023-07-16T14:55:08;2.70;;;2.50;;
31182;SDS011;17813;0.000;0.000;2023-07-16T14:57:36;4.20;;;2.80;;
31182;SDS011;17813;0.000;0.000;2023-07-16T15:00:07;3.45;;;2.90;;
31182;SDS011;17813;0.000;0.000;2023-07-16T15:02:37;2.88;;;2.50;;
31182;SDS011;17813;0.000;0.000;2023-07-16T15:05:04;5.88;;;2.78;;
31182;SDS011;17813;0.000;0.000;2023-07-16T15:07:32;4.38;;;2.72;;
31182;SDS011;17813;0.000;0.000;2023-07-16T15:10:02;3.85;;;2.80;;
31182;SDS011;17813;0.000;0.000;2023-07-16T15:12:30;4.80;;;2.78;;
31182;SDS011;17813;0.000;0.000;2023-07-16T15:14:57;2.97;;;2.50;;
31182;SDS011;17813;0.000;0.000;2023-07-16T15:17:24;3.95;;;2.72;;